createdAt,value
2023-04-02T00:02:23.277Z,8.33
2023-04-02T00:05:16.543Z,8.31
2023-04-02T00:07:49.070Z,8.24
2023-04-02T00:10:38.000Z,8.27
2023-04-02T00:13:11.150Z,8.19
2023-04-02T00:15:39.512Z,8.21
2023-04-02T00:18:06.915Z,8.21
2023-04-02T00:20:40.868Z,8.30
2023-04-02T00:23:11.578Z,8.32
2023-04-02T00:25:43.177Z,8.29
2023-04-02T00:28:22.190Z,8.37
2023-04-02T00:31:01.705Z,8.46
2023-04-02T00:33:32.258Z,8.43
2023-04-02T00:35:59.717Z,8.29
2023-04-02T00:38:30.158Z,7.99
2023-04-02T00:41:01.790Z,8.33
2023-04-02T00:43:32.344Z,8.22
2023-04-02T00:46:03.944Z,8.30
2023-04-02T00:48:33.837Z,8.34
2023-04-02T00:51:11.780Z,8.38
2023-04-02T00:53:39.829Z,8.38
2023-04-02T00:56:16.839Z,8.44
2023-04-02T00:58:44.865Z,8.40
2023-04-02T01:01:25.574Z,8.29
2023-04-02T01:03:58.252Z,8.40
2023-04-02T01:06:37.564Z,8.53
2023-04-02T01:09:40.062Z,8.44
2023-04-02T01:12:30.278Z,8.52
2023-04-02T01:15:12.884Z,8.52
2023-04-02T01:17:49.071Z,8.54
2023-04-02T01:20:31.398Z,8.58
2023-04-02T01:23:21.434Z,8.59
2023-04-02T01:25:55.906Z,8.37
2023-04-02T01:28:33.803Z,8.55
2023-04-02T01:31:02.981Z,8.44
2023-04-02T01:33:33.659Z,8.47
2023-04-02T01:36:17.629Z,8.57
2023-04-02T01:38:54.556Z,8.59
2023-04-02T01:41:33.689Z,8.57
2023-04-02T01:44:08.644Z,8.57
2023-04-02T01:46:41.323Z,8.58
2023-04-02T01:49:18.475Z,8.63
2023-04-02T01:51:46.520Z,8.69
2023-04-02T01:54:18.113Z,8.47
2023-04-02T01:56:47.207Z,8.61
2023-04-02T01:59:17.513Z,8.64
2023-04-02T02:02:05.494Z,8.65
2023-04-02T02:04:35.679Z,8.59
2023-04-02T02:07:04.262Z,8.58
2023-04-02T02:09:35.754Z,8.66
2023-04-02T02:12:04.585Z,8.70
2023-04-02T02:14:32.689Z,8.65
2023-04-02T02:17:02.610Z,8.66
2023-04-02T02:19:35.842Z,8.75
2023-04-02T02:22:30.918Z,8.70
2023-04-02T02:25:00.793Z,8.82
2023-04-02T02:27:28.164Z,8.85
2023-04-02T02:30:31.622Z,8.67
2023-04-02T02:33:17.302Z,8.71
2023-04-02T02:36:15.284Z,8.73
2023-04-02T02:38:54.085Z,8.73
2023-04-02T02:41:41.705Z,8.74
2023-04-02T02:44:09.450Z,8.69
2023-04-02T02:46:43.585Z,8.63
2023-04-02T02:49:28.468Z,8.74
2023-04-02T02:52:08.913Z,8.68
2023-04-02T02:54:51.896Z,8.67
2023-04-02T02:57:23.232Z,8.46
2023-04-02T02:59:52.986Z,8.43
2023-04-02T03:02:20.400Z,8.47
2023-04-02T03:04:50.986Z,8.10
2023-04-02T03:07:19.607Z,8.52
2023-04-02T03:10:13.279Z,8.60
2023-04-02T03:13:05.274Z,8.64
2023-04-02T03:15:41.373Z,8.54
2023-04-02T03:18:14.910Z,8.67
2023-04-02T03:21:06.779Z,8.59
2023-04-02T03:23:42.724Z,8.63
2023-04-02T03:26:23.008Z,8.59
2023-04-02T03:28:58.075Z,8.52
2023-04-02T03:31:32.535Z,8.52
2023-04-02T03:34:08.652Z,8.47
2023-04-02T03:36:43.784Z,8.63
2023-04-02T03:39:20.668Z,8.55
2023-04-02T03:41:52.690Z,8.62
2023-04-02T03:44:27.264Z,8.70
2023-04-02T03:47:01.616Z,8.75
2023-04-02T03:49:43.335Z,8.80
2023-04-02T03:52:31.124Z,8.87
2023-04-02T03:55:10.311Z,8.80
2023-04-02T03:57:56.576Z,8.82
2023-04-02T04:00:57.873Z,8.85
2023-04-02T04:03:45.237Z,8.73
2023-04-02T04:06:21.314Z,8.88
2023-04-02T04:08:57.139Z,8.85
2023-04-02T04:11:53.125Z,8.91
2023-04-02T04:14:35.692Z,8.76
2023-04-02T04:17:34.836Z,8.87
2023-04-02T04:20:16.036Z,8.98
2023-04-02T04:22:43.141Z,8.97
2023-04-02T04:25:35.350Z,8.82
2023-04-02T04:28:32.910Z,8.93
2023-04-02T04:31:47.359Z,9.01
2023-04-02T04:34:30.176Z,8.89
2023-04-02T04:37:02.193Z,8.99
2023-04-02T04:39:44.909Z,8.95
2023-04-02T04:42:24.796Z,8.96
2023-04-02T04:45:00.722Z,8.84
2023-04-02T04:47:39.389Z,8.73
2023-04-02T04:50:38.959Z,8.92
2023-04-02T04:53:14.245Z,8.93
2023-04-02T04:55:45.721Z,8.93
2023-04-02T04:58:37.753Z,8.73
2023-04-02T05:01:17.287Z,8.91
2023-04-02T05:04:01.577Z,8.84
2023-04-02T05:06:37.789Z,8.72
2023-04-02T05:09:33.277Z,8.76
2023-04-02T05:12:24.895Z,8.74
2023-04-02T05:15:11.277Z,8.77
2023-04-02T05:17:44.177Z,8.64
2023-04-02T05:20:33.633Z,8.69
2023-04-02T05:23:10.789Z,8.68
2023-04-02T05:25:50.102Z,8.67
2023-04-02T05:28:23.898Z,8.73
2023-04-02T05:30:56.594Z,8.74
2023-04-02T05:33:28.711Z,8.69
2023-04-02T05:36:14.286Z,8.59
2023-04-02T05:38:48.801Z,8.80
2023-04-02T05:41:39.502Z,8.75
2023-04-02T05:44:27.363Z,8.73
2023-04-02T05:47:07.164Z,8.67
2023-04-02T05:49:53.769Z,8.82
2023-04-02T05:52:34.151Z,8.84
2023-04-02T05:55:10.319Z,8.88
2023-04-02T05:58:13.609Z,8.75
2023-04-02T06:00:39.353Z,8.87
2023-04-02T06:03:29.011Z,8.89
2023-04-02T06:06:03.036Z,8.92
2023-04-02T06:08:37.468Z,8.93
2023-04-02T06:11:14.505Z,8.94
2023-04-02T06:13:43.150Z,9.06
2023-04-02T06:16:15.280Z,8.95
2023-04-02T06:18:43.895Z,9.01
2023-04-02T06:21:15.034Z,9.13
2023-04-02T06:24:13.766Z,9.25
2023-04-02T06:26:45.168Z,9.25
2023-04-02T06:29:40.312Z,9.28
2023-04-02T06:32:12.764Z,9.21
2023-04-02T06:34:43.111Z,9.25
2023-04-02T06:37:37.744Z,9.32
2023-04-02T06:40:49.753Z,9.48
2023-04-02T06:43:44.185Z,9.31
2023-04-02T06:46:31.544Z,9.40
2023-04-02T06:49:14.551Z,9.29
2023-04-02T06:51:44.661Z,9.41
2023-04-02T06:54:16.989Z,9.53
2023-04-02T06:56:51.385Z,9.31
2023-04-02T06:59:25.747Z,9.52
2023-04-02T07:02:16.123Z,9.42
2023-04-02T07:04:43.376Z,9.47
2023-04-02T07:07:10.466Z,9.64
2023-04-02T07:09:40.719Z,9.68
2023-04-02T07:12:14.131Z,9.57
2023-04-02T07:14:42.734Z,9.67
2023-04-02T07:17:17.862Z,9.83
2023-04-02T07:19:49.260Z,9.71
2023-04-02T07:22:19.498Z,9.62
2023-04-02T07:24:50.188Z,9.66
2023-04-02T07:27:17.413Z,9.53
2023-04-02T07:29:44.443Z,9.66
2023-04-02T07:32:13.297Z,9.47
2023-04-02T07:34:43.257Z,9.31
2023-04-02T07:37:14.666Z,9.52
2023-04-02T07:39:41.941Z,9.35
2023-04-02T07:42:08.957Z,9.44
2023-04-02T07:44:36.010Z,9.40
2023-04-02T07:47:03.127Z,9.32
2023-04-02T07:49:30.123Z,9.45
2023-04-02T07:51:57.265Z,9.44
2023-04-02T07:54:24.221Z,9.69
2023-04-02T07:56:51.303Z,9.66
2023-04-02T07:59:18.307Z,9.68
2023-04-02T08:01:45.364Z,9.64
2023-04-02T08:04:20.908Z,9.65
2023-04-02T08:06:49.078Z,9.64
2023-04-02T08:09:17.296Z,9.58
2023-04-02T08:11:44.461Z,9.65
2023-04-02T08:14:11.615Z,9.58
2023-04-02T08:16:50.250Z,9.47
2023-04-02T08:19:17.610Z,9.33
2023-04-02T08:21:44.918Z,9.49
2023-04-02T08:24:11.974Z,9.45
2023-04-02T08:26:38.926Z,9.48
2023-04-02T08:29:06.025Z,9.37
2023-04-02T08:31:32.968Z,9.50
2023-04-02T08:33:59.923Z,9.46
2023-04-02T08:36:33.309Z,9.26
2023-04-02T08:39:01.177Z,9.21
2023-04-02T08:41:28.653Z,9.39
2023-04-02T08:44:24.308Z,9.41
2023-04-02T08:47:01.462Z,9.53
2023-04-02T08:49:32.841Z,9.74
2023-04-02T08:52:00.043Z,9.76
2023-04-02T08:54:34.323Z,9.72
2023-04-02T08:57:14.818Z,9.72
2023-04-02T08:59:44.473Z,9.76
2023-04-02T09:02:20.861Z,9.98
2023-04-02T09:04:48.165Z,9.73
2023-04-02T09:07:17.132Z,9.78
2023-04-02T09:09:48.796Z,9.84
2023-04-02T09:12:21.796Z,9.83
2023-04-02T09:15:16.382Z,10.05
2023-04-02T09:17:53.741Z,9.92
2023-04-02T09:20:26.390Z,10.01
2023-04-02T09:22:54.760Z,10.13
2023-04-02T09:25:26.988Z,10.13
2023-04-02T09:27:56.248Z,10.04
2023-04-02T09:30:32.216Z,9.95
2023-04-02T09:33:09.409Z,9.97
2023-04-02T09:35:51.521Z,10.02
2023-04-02T09:38:23.540Z,9.94
2023-04-02T09:40:55.729Z,9.99
2023-04-02T09:43:25.739Z,10.02
2023-04-02T09:46:02.400Z,10.03
2023-04-02T09:48:32.080Z,10.11
2023-04-02T09:51:16.421Z,10.15
2023-04-02T09:54:03.178Z,10.10
2023-04-02T09:56:35.650Z,10.15
2023-04-02T09:59:13.366Z,10.10
2023-04-02T10:01:42.849Z,10.04
2023-04-02T10:04:37.649Z,10.11
2023-04-02T10:07:06.585Z,10.08
2023-04-02T10:09:36.605Z,9.70
2023-04-02T10:12:07.712Z,9.94
2023-04-02T10:14:40.093Z,9.90
2023-04-02T10:17:23.518Z,9.95
2023-04-02T10:20:17.334Z,10.01
2023-04-02T10:22:45.916Z,10.05
2023-04-02T10:25:17.573Z,10.21
2023-04-02T10:28:03.604Z,10.23
2023-04-02T10:30:41.658Z,10.06
2023-04-02T10:33:24.421Z,10.03
2023-04-02T10:36:03.331Z,10.20
2023-04-02T10:38:39.488Z,10.33
2023-04-02T10:41:21.279Z,10.49
2023-04-02T10:44:16.802Z,10.63
2023-04-02T10:47:01.918Z,10.90
2023-04-02T10:49:35.662Z,11.01
2023-04-02T10:52:07.722Z,11.16
2023-04-02T10:54:40.517Z,11.33
2023-04-02T10:57:26.932Z,11.55
2023-04-02T11:00:17.998Z,11.32
2023-04-02T11:03:03.286Z,11.50
2023-04-02T11:05:40.430Z,11.49
2023-04-02T11:08:15.762Z,11.74
2023-04-02T11:10:49.159Z,11.82
2023-04-02T11:13:24.514Z,11.87
2023-04-02T11:15:51.914Z,11.86
2023-04-02T11:19:04.945Z,11.92
2023-04-02T11:21:57.975Z,11.88
2023-04-02T11:24:42.954Z,11.81
2023-04-02T11:27:27.508Z,11.92
2023-04-02T11:30:24.508Z,11.83
2023-04-02T11:32:52.035Z,12.10
2023-04-02T11:35:38.538Z,12.21
2023-04-02T11:38:12.667Z,12.27
2023-04-02T11:40:55.165Z,12.25
2023-04-02T11:43:34.476Z,12.51
2023-04-02T11:46:16.941Z,12.42
2023-04-02T11:48:44.046Z,12.35
2023-04-02T11:51:23.156Z,12.46
2023-04-02T11:53:54.935Z,12.16
2023-04-02T11:56:46.255Z,12.42
2023-04-02T11:59:36.779Z,12.32
2023-04-02T12:02:28.930Z,12.17
2023-04-02T12:05:27.254Z,11.97
2023-04-02T12:08:44.274Z,12.09
2023-04-02T12:11:14.830Z,11.78
2023-04-02T12:13:41.757Z,11.78
2023-04-02T12:16:10.969Z,11.59
2023-04-02T12:18:46.955Z,11.61
2023-04-02T12:21:19.261Z,11.59
2023-04-02T12:23:48.212Z,11.69
2023-04-02T12:26:32.043Z,11.63
2023-04-02T12:29:28.553Z,11.62
2023-04-02T12:31:58.195Z,11.59
2023-04-02T12:34:28.335Z,11.62
2023-04-02T12:37:03.820Z,11.69
2023-04-02T12:39:32.817Z,11.77
2023-04-02T12:42:00.106Z,11.50
2023-04-02T12:44:29.347Z,11.74
2023-04-02T12:46:57.302Z,11.98
2023-04-02T12:49:44.086Z,12.07
2023-04-02T12:52:16.880Z,12.19
2023-04-02T12:54:54.387Z,12.22
2023-04-02T12:57:32.366Z,12.33
2023-04-02T13:00:27.575Z,12.23
2023-04-02T13:03:06.621Z,12.32
2023-04-02T13:05:35.437Z,12.33
2023-04-02T13:08:04.214Z,12.35
2023-04-02T13:10:31.928Z,12.31
2023-04-02T13:13:01.068Z,12.23
2023-04-02T13:15:34.548Z,12.25
2023-04-02T13:18:19.178Z,12.35
2023-04-02T13:20:59.996Z,12.43
2023-04-02T13:23:29.976Z,12.31
2023-04-02T13:26:02.449Z,12.28
2023-04-02T13:28:29.785Z,12.29
2023-04-02T13:30:56.755Z,12.09
2023-04-02T13:33:23.768Z,12.23
2023-04-02T13:35:50.910Z,12.14
2023-04-02T13:38:17.943Z,12.01
2023-04-02T13:40:45.041Z,12.11
2023-04-02T13:43:18.211Z,11.94
2023-04-02T13:45:50.571Z,11.91
2023-04-02T13:48:18.590Z,11.98
2023-04-02T13:50:46.847Z,11.87
2023-04-02T13:53:29.146Z,11.90
2023-04-02T13:55:56.689Z,11.97
2023-04-02T13:58:23.721Z,11.90
2023-04-02T14:00:51.216Z,12.00
2023-04-02T14:03:22.127Z,12.07
2023-04-02T14:06:18.549Z,12.12
2023-04-02T14:08:51.506Z,12.12
2023-04-02T14:11:33.547Z,12.18
2023-04-02T14:14:21.757Z,12.17
2023-04-02T14:17:18.048Z,12.18
2023-04-02T14:20:03.219Z,12.22
2023-04-02T14:22:45.171Z,12.21
2023-04-02T14:25:30.259Z,12.24
2023-04-02T14:28:22.305Z,12.28
2023-04-02T14:30:52.011Z,12.03
2023-04-02T14:33:33.874Z,11.94
2023-04-02T14:36:18.046Z,11.96
2023-04-02T14:39:00.737Z,12.04
2023-04-02T14:41:58.341Z,12.07
2023-04-02T14:44:28.931Z,12.00
2023-04-02T14:47:16.878Z,11.79
2023-04-02T14:49:46.264Z,11.73
2023-04-02T14:52:22.847Z,11.90
2023-04-02T14:55:02.547Z,11.85
2023-04-02T14:57:33.386Z,11.74
2023-04-02T15:00:05.649Z,11.80
2023-04-02T15:02:41.658Z,11.91
2023-04-02T15:05:29.971Z,11.89
2023-04-02T15:08:06.404Z,11.89
2023-04-02T15:10:47.115Z,11.82
2023-04-02T15:13:21.995Z,11.64
2023-04-02T15:16:04.451Z,11.78
2023-04-02T15:18:31.447Z,11.76
2023-04-02T15:21:32.275Z,11.94
2023-04-02T15:24:32.864Z,11.90
2023-04-02T15:27:14.682Z,11.95
2023-04-02T15:30:31.726Z,11.83
2023-04-02T15:33:24.554Z,11.87
2023-04-02T15:35:58.274Z,11.65
2023-04-02T15:38:38.175Z,11.83
2023-04-02T15:41:33.622Z,11.82
2023-04-02T15:44:13.623Z,11.74
2023-04-02T15:47:09.918Z,11.54
2023-04-02T15:49:47.290Z,11.68
2023-04-02T15:52:23.198Z,11.68
2023-04-02T15:55:23.022Z,11.75
2023-04-02T15:58:11.929Z,11.67
2023-04-02T16:00:54.266Z,11.65
2023-04-02T16:03:42.062Z,11.43
2023-04-02T16:06:18.010Z,11.65
2023-04-02T16:08:57.334Z,11.60
2023-04-02T16:11:25.975Z,11.51
2023-04-02T16:14:04.165Z,11.56
2023-04-02T16:16:41.827Z,11.25
2023-04-02T16:19:27.531Z,11.55
2023-04-02T16:22:02.727Z,11.51
2023-04-02T16:24:29.700Z,11.58
2023-04-02T16:27:21.074Z,11.31
2023-04-02T16:30:01.125Z,11.63
2023-04-02T16:33:02.254Z,11.58
2023-04-02T16:35:53.312Z,11.58
2023-04-02T16:38:29.307Z,11.51
2023-04-02T16:41:31.582Z,11.54
2023-04-02T16:44:19.113Z,11.36
2023-04-02T16:46:57.977Z,11.37
2023-04-02T16:49:38.849Z,11.37
2023-04-02T16:52:43.271Z,11.49
2023-04-02T16:55:13.043Z,11.48
2023-04-02T16:57:50.949Z,11.48
2023-04-02T17:00:37.249Z,11.51
2023-04-02T17:03:22.852Z,11.45
2023-04-02T17:06:06.825Z,11.35
2023-04-02T17:08:43.801Z,11.40
2023-04-02T17:11:41.425Z,11.47
2023-04-02T17:14:27.276Z,11.44
2023-04-02T17:17:03.994Z,11.46
2023-04-02T17:19:32.570Z,11.42
2023-04-02T17:22:02.181Z,11.18
2023-04-02T17:24:50.870Z,11.37
2023-04-02T17:27:41.193Z,11.35
2023-04-02T17:30:18.024Z,11.07
2023-04-02T17:32:45.051Z,11.37
2023-04-02T17:35:48.360Z,11.42
2023-04-02T17:38:40.515Z,11.28
2023-04-02T17:41:40.463Z,11.39
2023-04-02T17:44:32.119Z,11.39
2023-04-02T17:47:04.945Z,11.35
2023-04-02T17:49:49.916Z,11.36
2023-04-02T17:52:33.295Z,11.37
2023-04-02T17:55:12.485Z,11.31
2023-04-02T17:58:05.273Z,11.33
2023-04-02T18:00:47.464Z,11.32
2023-04-02T18:03:32.075Z,11.35
2023-04-02T18:06:10.071Z,11.32
2023-04-02T18:09:19.341Z,11.35
2023-04-02T18:12:13.643Z,11.32
2023-04-02T18:14:50.348Z,11.29
2023-04-02T18:17:37.569Z,11.33
2023-04-02T18:20:28.757Z,11.38
2023-04-02T18:23:23.042Z,11.29
2023-04-02T18:26:02.553Z,11.27
2023-04-02T18:28:40.933Z,11.28
2023-04-02T18:31:14.839Z,11.28
2023-04-02T18:34:19.836Z,11.16
2023-04-02T18:37:02.930Z,11.14
2023-04-02T18:39:45.069Z,11.15
2023-04-02T18:42:24.096Z,11.02
2023-04-02T18:44:54.059Z,11.14
2023-04-02T18:47:23.918Z,11.09
2023-04-02T18:50:11.585Z,11.17
2023-04-02T18:52:39.490Z,11.27
2023-04-02T18:55:15.072Z,11.14
2023-04-02T18:57:45.146Z,11.15
2023-04-02T19:00:15.500Z,11.16
2023-04-02T19:02:48.790Z,11.23
2023-04-02T19:05:54.069Z,11.24
2023-04-02T19:08:28.466Z,11.13
2023-04-02T19:11:00.795Z,11.15
2023-04-02T19:13:27.779Z,11.12
2023-04-02T19:15:54.706Z,11.19
2023-04-02T19:18:36.084Z,11.14
2023-04-02T19:21:27.465Z,11.19
2023-04-02T19:24:20.839Z,11.14
2023-04-02T19:26:57.248Z,11.25
2023-04-02T19:29:31.485Z,11.20
2023-04-02T19:32:07.185Z,11.27
2023-04-02T19:34:47.305Z,11.26
2023-04-02T19:37:39.582Z,11.26
2023-04-02T19:40:27.492Z,11.24
2023-04-02T19:42:54.869Z,11.28
2023-04-02T19:45:36.556Z,11.31
2023-04-02T19:48:14.676Z,11.27
2023-04-02T19:50:41.729Z,11.24
2023-04-02T19:53:08.772Z,11.23
2023-04-02T19:55:36.084Z,11.27
2023-04-02T19:58:17.348Z,11.22
2023-04-02T20:00:46.256Z,11.18
2023-04-02T20:03:13.258Z,11.16
2023-04-02T20:05:40.225Z,11.18
2023-04-02T20:08:07.138Z,11.01
2023-04-02T20:10:35.216Z,11.20
2023-04-02T20:13:02.371Z,11.21
2023-04-02T20:15:29.425Z,11.22
2023-04-02T20:17:56.441Z,11.18
2023-04-02T20:20:23.464Z,11.18
2023-04-02T20:22:50.641Z,11.12
2023-04-02T20:25:17.685Z,11.08
2023-04-02T20:27:44.660Z,11.12
2023-04-02T20:30:12.094Z,11.11
2023-04-02T20:32:39.183Z,11.02
2023-04-02T20:35:06.891Z,10.97
2023-04-02T20:37:34.266Z,11.17
2023-04-02T20:40:01.437Z,11.14
2023-04-02T20:42:28.931Z,11.16
2023-04-02T20:44:55.889Z,11.17
2023-04-02T20:47:22.983Z,11.18
2023-04-02T20:49:50.508Z,11.18
2023-04-02T20:52:17.514Z,11.21
2023-04-02T20:54:44.523Z,11.20
2023-04-02T20:57:11.489Z,11.19
2023-04-02T20:59:38.461Z,11.10
2023-04-02T21:02:05.498Z,10.83
2023-04-02T21:04:32.449Z,11.12
2023-04-02T21:06:59.474Z,11.09
2023-04-02T21:09:27.084Z,11.12
2023-04-02T21:11:54.151Z,11.09
2023-04-02T21:14:21.154Z,11.02
2023-04-02T21:16:48.112Z,10.98
2023-04-02T21:19:15.170Z,10.82
2023-04-02T21:21:44.327Z,10.80
2023-04-02T21:24:11.428Z,10.90
2023-04-02T21:26:40.461Z,10.91
2023-04-02T21:29:07.844Z,10.86
2023-04-02T21:31:37.714Z,10.93
2023-04-02T21:34:06.130Z,10.93
2023-04-02T21:36:40.714Z,10.92
2023-04-02T21:39:12.992Z,10.90
2023-04-02T21:41:42.977Z,10.78
2023-04-02T21:44:14.093Z,10.87
2023-04-02T21:46:44.844Z,10.83
2023-04-02T21:49:14.074Z,10.81
2023-04-02T21:51:42.639Z,10.82
2023-04-02T21:54:10.086Z,10.73
2023-04-02T21:56:39.460Z,10.32
2023-04-02T21:59:08.263Z,10.73
2023-04-02T22:01:38.312Z,10.71
2023-04-02T22:04:08.043Z,10.62
2023-04-02T22:06:40.792Z,10.62
2023-04-02T22:09:11.500Z,10.59
2023-04-02T22:11:42.456Z,10.53
2023-04-02T22:14:09.786Z,10.55
2023-04-02T22:16:37.371Z,10.55
2023-04-02T22:19:07.090Z,10.57
2023-04-02T22:21:34.179Z,10.44
2023-04-02T22:24:03.341Z,10.47
2023-04-02T22:26:31.586Z,10.36
2023-04-02T22:28:59.313Z,10.33
2023-04-02T22:31:28.536Z,10.26
2023-04-02T22:33:56.679Z,10.29
2023-04-02T22:36:25.020Z,10.27
2023-04-02T22:38:51.996Z,10.06
2023-04-02T22:41:26.486Z,10.18
2023-04-02T22:43:54.752Z,10.25
2023-04-02T22:46:21.815Z,10.23
2023-04-02T22:48:49.680Z,10.24
2023-04-02T22:51:19.297Z,10.22
2023-04-02T22:53:47.118Z,10.21
2023-04-02T22:56:19.768Z,10.13
2023-04-02T22:58:46.889Z,10.02
2023-04-02T23:01:21.463Z,10.02
2023-04-02T23:03:48.960Z,9.99
2023-04-02T23:06:18.313Z,10.02
2023-04-02T23:08:46.618Z,9.92
2023-04-02T23:11:22.347Z,10.00
2023-04-02T23:13:51.767Z,9.94
2023-04-02T23:16:19.404Z,9.95
2023-04-02T23:18:48.195Z,9.86
2023-04-02T23:21:16.907Z,9.93
2023-04-02T23:23:44.560Z,9.83
2023-04-02T23:26:23.313Z,9.93
2023-04-02T23:28:51.197Z,9.80
2023-04-02T23:31:21.075Z,9.89
2023-04-02T23:33:48.522Z,9.93
2023-04-02T23:36:21.109Z,9.92
2023-04-02T23:38:48.141Z,9.94
2023-04-02T23:41:17.015Z,9.84
2023-04-02T23:43:44.350Z,9.80
2023-04-02T23:46:11.755Z,9.62
2023-04-02T23:48:38.875Z,9.53
2023-04-02T23:51:06.905Z,9.57
2023-04-02T23:53:34.917Z,9.59
2023-04-02T23:56:01.930Z,9.55
2023-04-02T23:58:28.897Z,9.53
